Flinterbirka — PHFQ — position and weather

sailwx.info

Track history (hours):
 
Tides and Currents Weather Stations Pressure Air Temp Water Temp Dewpoint Dewpoint Depression Visibility Wind Speed Wind Dir Waves Ship Positions

Flinterbirka

Last reported at 2016-Sep-27 14:28 UTC. Time now 2016-Sep-27 17:15 UTC.
Position N 54°37' W 005°55'.

Length 81 m; draft 3.9 m.

Type: Cargo ship. MMSI: 246525000.

Date/timePositionNaut miles runAvg speedWind from/ knotsBaromVisibWave heightAir tempDewpointWater temp
2016-Sep-27 14:28N 54°37' W 005°55'0 0.0
2016-Sep-27 13:31N 54°37' W 005°55'0 0.0
2016-Sep-27 10:26N 54°37' W 005°55'0 0.0
2016-Sep-26 15:18N 54°37' W 005°55'0 0.0
2016-Sep-26 08:15N 54°37' W 005°55'0 0.0
2016-Sep-25 17:17N 54°37' W 005°55'0 0.0
2016-Sep-25 16:33N 54°37' W 005°55'0 0.0
2016-Sep-25 15:08N 54°37' W 005°55'1 0.2
2016-Sep-25 11:22N 54°37' W 005°54'6 7.7
2016-Sep-25 10:33N 54°42' W 005°46'7 6.7
2016-Sep-25 09:33N 54°43' W 005°35'18 8.8
2016-Sep-25 07:33N 54°28' W 005°20'247 8.8
2016-Sep-24 03:23N 50°21' W 005°54'8 8.3
2016-Sep-24 02:26N 50°13' W 005°53'10 8.1
2016-Sep-24 01:09N 50°03' W 005°53'61 7.7
2016-Sep-23 17:15N 50°01' W 004°18'7 9.5
2016-Sep-23 16:30N 50°03' W 004°07'9 9.3
2016-Sep-23 15:30N 50°04' W 003°52'17 8.8
2016-Sep-23 13:33N 50°07' W 003°26'121 9.0
2016-Sep-23 00:10N 50°30' W 000°20'4 7.2
2016-Sep-22 23:33N 50°31' W 000°13'94 8.5
2016-Sep-22 12:33N 51°20' E 001°53'72 8.9
2016-Sep-22 04:33N 51°21' E 003°48'2 1.8
2016-Sep-22 03:33N 51°20' E 003°49'10 3.3
2016-Sep-22 00:31N 51°10' E 003°47'0 0.0
2016-Sep-21 23:27N 51°10' E 003°47'0 0.0
2016-Sep-21 22:27N 51°10' E 003°47'1 0.4
2016-Sep-21 19:33N 51°08' E 003°47'0 0.0
2016-Sep-21 16:32N 51°08' E 003°47'0 0.0
2016-Sep-21 09:14N 51°08' E 003°47'0 0.0
2016-Sep-21 08:29N 51°08' E 003°47'0 0.0
2016-Sep-21 05:33N 51°08' E 003°47'0 0.0
2016-Sep-21 03:32N 51°08' E 003°47'0 0.0
2016-Sep-21 02:32N 51°08' E 003°47'0 0.0
2016-Sep-20 17:28N 51°08' E 003°47'0 0.0
2016-Sep-20 14:30N 51°08' E 003°47'0 0.0
2016-Sep-20 13:32N 51°08' E 003°47'0 0.0
2016-Sep-20 10:31N 51°08' E 003°47'0 0.0
2016-Sep-20 08:30N 51°08' E 003°47'0 0.0
2016-Sep-20 07:33N 51°08' E 003°47'0 0.0
2016-Sep-20 06:32N 51°08' E 003°47'12 3.0
2016-Sep-20 02:33N 51°20' E 003°49'28 9.4
2016-Sep-19 23:33N 51°22' E 003°04'19 4.7
2016-Sep-19 19:33N 51°24' E 002°34'0 0.0
2016-Sep-19 18:32N 51°24' E 002°34'0 0.0
2016-Sep-19 16:29N 51°24' E 002°34'0 0.0
2016-Sep-19 14:31N 51°24' E 002°34'0 0.0
2016-Sep-19 13:33N 51°24' E 002°34'0 0.1
2016-Sep-19 12:33N 51°24' E 002°34'0 0.0
2016-Sep-19 11:32N 51°24' E 002°34'0 0.0
2016-Sep-19 09:28N 51°24' E 002°34'0 0.0
2016-Sep-19 07:31N 51°24' E 002°34'0 0.0
2016-Sep-19 06:33N 51°24' E 002°34'0 0.0
2016-Sep-19 03:32N 51°24' E 002°34'0 0.0
2016-Sep-19 02:32N 51°24' E 002°34'0 0.0
2016-Sep-19 00:31N 51°24' E 002°34'0 0.0
2016-Sep-18 19:31N 51°24' E 002°34'0 0.0
2016-Sep-18 15:33N 51°24' E 002°34'0 0.0
2016-Sep-18 14:32N 51°24' E 002°34'0 0.0
2016-Sep-18 10:31N 51°24' E 002°34'0 0.0
2016-Sep-18 09:33N 51°24' E 002°34'38 5.4
2016-Sep-18 02:34N 51°04' E 001°43'1212.3
2016-Sep-18 01:33N 50°55' E 001°30'  
Track history (hours):
 
Tides and Currents Weather Stations Pressure Air Temp Water Temp Dewpoint Dewpoint Depression Visibility Wind Speed Wind Dir Waves Ship Positions

Flinterbirka

Last reported at 2016-Sep-27 14:28 UTC. Time now 2016-Sep-27 17:15 UTC.
Position N 54°37' W 005°55'.

Length 81 m; draft 3.9 m.

Type: Cargo ship. MMSI: 246525000.

Date/timePositionNaut miles runAvg speedWind from/ knotsBaromVisibWave heightAir tempDewpointWater temp
2016-Sep-27 14:28N 54°37' W 005°55'0 0.0
2016-Sep-27 13:31N 54°37' W 005°55'0 0.0
2016-Sep-27 10:26N 54°37' W 005°55'0 0.0
2016-Sep-26 15:18N 54°37' W 005°55'0 0.0
2016-Sep-26 08:15N 54°37' W 005°55'0 0.0
2016-Sep-25 17:17N 54°37' W 005°55'0 0.0
2016-Sep-25 16:33N 54°37' W 005°55'0 0.0
2016-Sep-25 15:08N 54°37' W 005°55'1 0.2
2016-Sep-25 11:22N 54°37' W 005°54'6 7.7
2016-Sep-25 10:33N 54°42' W 005°46'7 6.7
2016-Sep-25 09:33N 54°43' W 005°35'18 8.8
2016-Sep-25 07:33N 54°28' W 005°20'247 8.8
2016-Sep-24 03:23N 50°21' W 005°54'8 8.3
2016-Sep-24 02:26N 50°13' W 005°53'10 8.1
2016-Sep-24 01:09N 50°03' W 005°53'61 7.7
2016-Sep-23 17:15N 50°01' W 004°18'7 9.5
2016-Sep-23 16:30N 50°03' W 004°07'9 9.3
2016-Sep-23 15:30N 50°04' W 003°52'17 8.8
2016-Sep-23 13:33N 50°07' W 003°26'121 9.0
2016-Sep-23 00:10N 50°30' W 000°20'4 7.2
2016-Sep-22 23:33N 50°31' W 000°13'94 8.5
2016-Sep-22 12:33N 51°20' E 001°53'72 8.9
2016-Sep-22 04:33N 51°21' E 003°48'2 1.8
2016-Sep-22 03:33N 51°20' E 003°49'10 3.3
2016-Sep-22 00:31N 51°10' E 003°47'0 0.0
2016-Sep-21 23:27N 51°10' E 003°47'0 0.0
2016-Sep-21 22:27N 51°10' E 003°47'1 0.4
2016-Sep-21 19:33N 51°08' E 003°47'0 0.0
2016-Sep-21 16:32N 51°08' E 003°47'0 0.0
2016-Sep-21 09:14N 51°08' E 003°47'0 0.0
2016-Sep-21 08:29N 51°08' E 003°47'0 0.0
2016-Sep-21 05:33N 51°08' E 003°47'0 0.0
2016-Sep-21 03:32N 51°08' E 003°47'0 0.0
2016-Sep-21 02:32N 51°08' E 003°47'0 0.0
2016-Sep-20 17:28N 51°08' E 003°47'0 0.0
2016-Sep-20 14:30N 51°08' E 003°47'0 0.0
2016-Sep-20 13:32N 51°08' E 003°47'0 0.0
2016-Sep-20 10:31N 51°08' E 003°47'0 0.0
2016-Sep-20 08:30N 51°08' E 003°47'0 0.0
2016-Sep-20 07:33N 51°08' E 003°47'0 0.0
2016-Sep-20 06:32N 51°08' E 003°47'12 3.0
2016-Sep-20 02:33N 51°20' E 003°49'28 9.4
2016-Sep-19 23:33N 51°22' E 003°04'19 4.7
2016-Sep-19 19:33N 51°24' E 002°34'0 0.0
2016-Sep-19 18:32N 51°24' E 002°34'0 0.0
2016-Sep-19 16:29N 51°24' E 002°34'0 0.0
2016-Sep-19 14:31N 51°24' E 002°34'0 0.0
2016-Sep-19 13:33N 51°24' E 002°34'0 0.1
2016-Sep-19 12:33N 51°24' E 002°34'0 0.0
2016-Sep-19 11:32N 51°24' E 002°34'0 0.0
2016-Sep-19 09:28N 51°24' E 002°34'0 0.0
2016-Sep-19 07:31N 51°24' E 002°34'0 0.0
2016-Sep-19 06:33N 51°24' E 002°34'0 0.0
2016-Sep-19 03:32N 51°24' E 002°34'0 0.0
2016-Sep-19 02:32N 51°24' E 002°34'0 0.0
2016-Sep-19 00:31N 51°24' E 002°34'0 0.0
2016-Sep-18 19:31N 51°24' E 002°34'0 0.0
2016-Sep-18 15:33N 51°24' E 002°34'0 0.0
2016-Sep-18 14:32N 51°24' E 002°34'0 0.0
2016-Sep-18 10:31N 51°24' E 002°34'0 0.0
2016-Sep-18 09:33N 51°24' E 002°34'38 5.4
2016-Sep-18 02:34N 51°04' E 001°43'1212.3
2016-Sep-18 01:33N 50°55' E 001°30'  

Dump ship's entire track history